AirNav   Everest Fuels
 
 1038 users online  

94FD Santa Rosa Medical Center Heliport
Milton, Florida, USA

GOING TO MILTON?


FAA INFORMATION EFFECTIVE 07 NOVEMBER 2019

Location

FAA Identifier: 94FD
Lat/Long: 30-38-01.3100N 087-03-58.2500W
30-38.021833N 087-03.970833W
30.6336972,-87.0661806
(estimated)
Elevation: 156 ft. / 48 m (estimated)
Variation: 00E (1990)
Time zone: UTC -6 (UTC -5 during Daylight Saving Time)
Zip code: 32570

Heliport Operations

Heliport use: Private use, MEDICAL USE.
Activation date: 04/1993
Control tower: no
ARTCC: JACKSONVILLE CENTER
FSS: GAINESVILLE FLIGHT SERVICE STATION
Attendance: UNATNDD
Segmented circle: no

Heliport Communications

WX ASOS at NDZ (5 nm NE): PHONE 850-623-7210
WX ASOS at NSE (6 nm N): PHONE 850-623-7241
WX ASOS at PNS (11 nm SW): PHONE 850-436-4799

Nearby radio navigation aids

VOR radial/distance  VOR name  Freq  Var
NUNr054/(17.0)SAUFLEY VOR108.8001E
CEWr237/23.1CRESTVIEW VORTAC115.9003E

 
NDB name  Hdg/Dist  Freq  Var  ID
PICKENS028/13.132602WPKZ .--. -.- --..

Heliport Services

Runway Information

Helipad H1

Dimensions: 30 x 30 ft. / 9 x 9 m
Surface: concrete
Latitude: 30-38.021833N
Longitude: 087-03.970833W
Elevation: 156.0 ft.
Traffic pattern: leftleft

Heliport Ownership and Management from official FAA records

Ownership: Privately-owned
Owner: HMA - SANTA ROSA MEDICAL CENTER
6002 BERRYHILL RD.
MILTON, FL 32570
Phone 850-626-7762
Manager: JEFF WALTERS, DIRECTOR
6002 BERRYHILL RD.
MILTON, FL 32570
Phone 850-626-7762

Additional Remarks

A52-H1 100 FT ANT 300 FT E.
FOR CD CTC PENSACOLA APCH AT 850-266-6884 OR 850-266-6885.

Instrument Procedures

There are no published instrument procedures at 94FD.

Some nearby airports with instrument procedures:

2R4 - Peter Prince Field Airport (4 nm E)
KNDZ - Whiting Field Naval Air Station South (5 nm NE)
KNSE - Whiting Field Naval Air Station North (6 nm N)
KPNS - Pensacola International Airport (11 nm SW)
KNPA - Pensacola Naval Air Station/Forrest Sherman Field (21 nm SW)
 
Loc | Ops | Rwys | IFR | FBO | Links
Com | Nav | Svcs | Stats | Notes

Continental Motors
AirBoss

 
Area around 94FD (Santa Rosa Medical Center Heliport)
 
Road maps at: MapQuest Bing Google
 
Aerial photo
No photo
 
Sectional chart

 
Airport distance calculator
Flying to Santa Rosa Medical Center Heliport? Find the distance to fly.

From to 94FD

Sunrise and sunset
Times for 17-Nov-2019
 Local
(UTC-6)
 Zulu
(UTC)
Morning civil twilight05:5211:52
Sunrise06:1712:17
Sunset16:4922:49
Evening civil twilight17:1523:15

Current date and time
Zulu (UTC)  18-Nov-2019 02:00:26
Local (UTC-6)  17-Nov-2019 20:00:26
 
METAR
KNDZ 
5nm NE 
180056Z 00000KT 10SM BKN250 15/11 A2994 RMK AO2 SLP126 T01500106 $
KNSE 
6nm NE 
180056Z AUTO 00000KT 10SM CLR 12/10 A2994 RMK AO2 SLP126 T01170100 $
KPNS 
11nm SW 
180153Z 00000KT 10SM CLR 13/11 A2992 RMK AO2 SLP134 T01280111 $
TAF
KNSE 
6nm NE 
1715/1815 VRB06KT 9999 SKC QNH3007INS FM172000 34010KT 9999 SCT250 QNH2999INS FM180700 VRB06KT 9999 BKN250 QNH2995INS AUTOMATED SENSOR METWATCH 1715 TIL 1718 T17/1720Z T07/1811Z FN00189
KPNS 
11nm SW 
171735Z 1718/1818 16005KT P6SM SCT250 FM180300 32004KT P6SM SCT250
NOTAMs
Click for the latest NOTAMs
NOTAMs are issued by the DoD/FAA and will open in a separate window not controlled by AirNav.

 

 
 

Would you like to see your business listed on this page?

 If your business provides an interesting product or service to pilots, flight crews, aircraft, or users of the Santa Rosa Medical Center Heliport, you should consider listing it here.  To start the listing process, click on the button below
 
Add a business
 

Other Pages about Santa Rosa Medical Center Heliport

Update a link
 
Copyright © AirNav, LLC. All rights reserved. Privacy Policy  Contact